Latest Weather Observations for Tasman Island

IDT60901

Issued at 10:51 pm EDT Friday 16 November 2018 (issued every 10 minutes, with the page automatically refreshed every 10 minutes)

About weather observations | Map of Hobart area stations | Latest observations for Hobart area | Other Formats
Station Details ID: 094155 Name: TASMAN ISLAND Lat: -43.24 Lon: 148.00 Height: 240.0 m
Data from the previous 72 hours. | See also: Recent months at Tasman Island
Date/Time
EDT
Temp
°C
App
Temp
°C
Dew
Point
°C
Rel
Hum
%
Delta-T
°C
Wind Press
QNH
hPa
Press
MSL
hPa
Rain since
9am
mm
Dir  Spd
km/h
Gust
km/h
Spd
kts
Gust
kts
16/10:30pm - - - - - SSW 9 17 5 9 1022.3 1022.4 2.2
16/10:00pm - - - - - SSW 11 17 6 9 1022.2 1022.3 2.2
16/09:30pm - - - - - SSW 13 24 7 13 1022.2 1022.3 2.2
16/09:00pm - - - - - SSW 11 20 6 11 1021.8 1021.9 2.2
16/08:30pm - - - - - SSW 13 20 7 11 1021.7 1021.8 2.2
16/08:00pm - - - - - SSW 11 19 6 10 1021.5 1021.5 2.2
16/07:30pm - - - - - SW 15 20 8 11 1021.3 1021.3 2.2
16/07:00pm - - - - - SW 11 20 6 11 1021.0 1021.0 2.2
16/06:30pm - - - - - SSW 13 22 7 12 1020.6 1020.6 2.2
16/06:00pm - - - - - SSW 15 20 8 11 1020.5 1020.5 2.2
16/05:30pm - - - - - SSW 13 19 7 10 1020.3 1020.3 2.2
16/05:00pm - - - - - S 11 17 6 9 1020.3 1020.3 2.2
16/04:30pm - - - - - S 13 22 7 12 1020.3 1020.3 2.2
16/04:00pm - - - - - S 13 20 7 11 1020.5 1020.5 2.2
16/03:30pm - - - - - SSE 11 19 6 10 1020.4 1020.4 2.2
16/03:00pm - - - - - SSE 9 15 5 8 1020.2 1020.2 2.2
16/02:30pm - - - - - S 6 11 3 6 1020.6 1020.6 2.2
16/02:00pm - - - - - ESE 6 9 3 5 1020.7 1020.7 2.2
16/01:30pm - - - - - NE 2 6 1 3 1021.1 1021.1 2.2
16/01:00pm - - - - - SSE 7 11 4 6 1020.9 1020.9 2.2
16/12:30pm - - - - - S 6 15 3 8 1021.2 1021.2 0.0
16/12:00pm - - - - - N 20 32 11 17 1021.2 1021.2 0.0
16/11:30am - - - - - NNE 20 32 11 17 1021.3 1021.3 0.0
16/11:00am - - - - - N 24 35 13 19 1021.4 1021.4 0.0
16/10:30am - - - - - N 28 37 15 20 1021.4 1021.4 0.0
16/10:00am - - - - - N 32 41 17 22 1021.7 1021.8 0.0
16/09:30am - - - - - N 32 46 17 25 1021.8 1021.9 0.0
16/09:00am - - - - - N 30 41 16 22 1022.1 1022.2 0.0
16/08:30am - - - - - N 33 43 18 23 1022.3 1022.4 0.0
16/08:00am - - - - - N 33 41 18 22 1022.2 1022.3 0.0
16/07:30am - - - - - NNE 32 41 17 22 1022.1 1022.2 0.0
16/07:00am - - - - - N 32 41 17 22 1022.0 1022.1 0.0
16/06:30am - - - - - N 30 39 16 21 1022.1 1022.2 0.0
16/06:00am - - - - - N 28 35 15 19 1022.2 1022.3 0.0
16/05:30am - - - - - NNE 32 43 17 23 1021.9 1022.0 0.0
16/05:00am - - - - - NNE 32 41 17 22 1022.0 1022.1 0.0
16/04:30am - - - - - NNE 32 39 17 21 1022.2 1022.3 0.0
16/04:00am - - - - - NNE 28 41 15 22 1022.4 1022.5 0.0
16/03:30am - - - - - NNE 24 35 13 19 1022.7 1022.8 0.0
16/03:00am - - - - - NNE 20 28 11 15 1023.3 1023.3 0.0
16/02:30am - - - - - NNE 15 24 8 13 1023.7 1023.7 0.0
16/02:00am - - - - - NNE 9 17 5 9 1024.2 1024.2 0.0
16/01:30am - - - - - NNE 7 17 4 9 1024.7 1024.7 0.0
16/01:00am - - - - - NNE 7 13 4 7 1025.3 1025.4 0.0
16/12:30am - - - - - NE 4 7 2 4 1025.5 1025.6 0.0
16/12:00am - - - - - E 4 11 2 6 1025.6 1025.7 0.0
 
Date/Time
EDT
Temp
°C
App
Temp
°C
Dew
Point
°C
Rel
Hum
%
Delta-T
°C
Wind Press
QNH
hPa
Press
MSL
hPa
Rain since
9am
mm
Dir  Spd
km/h
Gust
km/h
Spd
kts
Gust
kts
15/11:30pm - - - - - ENE 4 11 2 6 1025.7 1025.8 0.0
15/11:00pm - - - - - S 2 9 1 5 1025.8 1025.9 0.0
15/10:30pm - - - - - SSE 6 9 3 5 1026.1 1026.2 0.0
15/10:00pm - - - - - SSE 6 9 3 5 1026.1 1026.2 0.0
15/09:30pm - - - - - SSE 4 9 2 5 1026.1 1026.2 0.0
15/09:00pm - - - - - S 7 11 4 6 1026.1 1026.2 0.0
15/08:30pm - - - - - S 7 13 4 7 1025.9 1026.0 0.0
15/08:00pm - - - - - SSE 11 17 6 9 1025.7 1025.8 0.0
15/07:30pm - - - - - S 13 22 7 12 1025.5 1025.6 0.0
15/07:00pm - - - - - S 13 22 7 12 1025.4 1025.5 0.0
15/06:30pm - - - - - S 15 24 8 13 1025.2 1025.3 0.0
15/06:00pm - - - - - S 15 22 8 12 1025.1 1025.1 0.0
15/05:30pm - - - - - SSW 17 24 9 13 1025.0 1025.0 0.0
15/05:00pm - - - - - S 17 28 9 15 1024.7 1024.7 0.0
15/04:30pm - - - - - S 19 28 10 15 1024.5 1024.5 0.0
15/04:00pm - - - - - SSW 19 32 10 17 1024.3 1024.3 0.0
15/03:30pm - - - - - SSW 19 26 10 14 1024.3 1024.3 0.0
15/03:00pm - - - - - SSW 20 30 11 16 1024.3 1024.3 0.0
15/02:30pm - - - - - SSW 20 32 11 17 1024.1 1024.1 0.0
15/02:00pm - - - - - SSW 26 37 14 20 1024.0 1024.0 0.0
15/01:30pm - - - - - SSW 22 33 12 18 1023.8 1023.8 0.0
15/01:00pm - - - - - SSW 28 44 15 24 1023.5 1023.5 0.0
15/12:30pm - - - - - SSW 22 41 12 22 1023.4 1023.4 0.0
15/12:00pm - - - - - SSW 20 33 11 18 1023.2 1023.2 0.0
15/11:30am - - - - - SSW 22 35 12 19 1022.7 1022.8 0.0
15/11:00am - - - - - SW 19 33 10 18 1022.5 1022.6 0.0
15/10:30am - - - - - SW 20 37 11 20 1022.2 1022.3 0.0
15/10:00am - - - - - SW 13 32 7 17 1021.8 1021.9 0.0
15/09:30am - - - - - SW 22 39 12 21 1021.5 1021.5 0.0
15/09:00am - - - - - SSW 19 44 10 24 1021.0 1021.0 0.2
15/08:30am - - - - - SW 11 30 6 16 1020.4 1020.4 0.2
15/08:00am - - - - - SW 20 33 11 18 1020.0 1020.0 0.2
15/07:30am - - - - - SW 24 35 13 19 1019.5 1019.5 0.2
15/07:00am - - - - - SW 30 43 16 23 1018.9 1018.9 0.2
15/06:35am - - - - - SW 28 46 15 25 1018.3 1018.4 0.2
15/06:30am - - - - - SW 28 44 15 24 1018.2 1018.3 0.2
15/06:00am - - - - - SW 30 43 16 23 1017.8 1017.8 0.2
15/05:30am - - - - - SW 30 41 16 22 1017.3 1017.3 0.2
15/05:00am - - - - - SW 30 50 16 27 1016.8 1016.8 0.2
15/04:53am - - - - - SW 28 50 15 27 1016.7 1016.7 0.2
15/04:30am - - - - - SW 26 44 14 24 1016.4 1016.4 0.2
15/04:00am - - - - - SW 26 44 14 24 1016.0 1016.0 0.2
15/03:30am - - - - - SW 28 44 15 24 1016.0 1016.0 0.2
15/03:00am - - - - - SW 13 30 7 16 1015.9 1015.9 0.2
15/02:30am - - - - - WSW 13 24 7 13 1015.9 1015.9 0.2
15/02:00am - - - - - WSW 9 20 5 11 1015.9 1015.9 0.2
15/01:30am - - - - - SW 9 22 5 12 1015.7 1015.7 0.2
15/01:00am - - - - - SW 17 30 9 16 1015.8 1015.8 0.2
15/12:30am - - - - - WSW 7 15 4 8 1015.8 1015.8 0.2
15/12:00am - - - - - SW 7 17 4 9 1015.8 1015.8 0.0
 
Date/Time
EDT
Temp
°C
App
Temp
°C
Dew
Point
°C
Rel
Hum
%
Delta-T
°C
Wind Press
QNH
hPa
Press
MSL
hPa
Rain since
9am
mm
Dir  Spd
km/h
Gust
km/h
Spd
kts
Gust
kts
14/11:30pm - - - - - SW 19 30 10 16 1015.6 1015.6 0.0
14/11:00pm - - - - - SW 7 24 4 13 1015.3 1015.3 0.0
14/10:30pm - - - - - SW 11 28 6 15 1015.2 1015.2 0.0
14/10:00pm - - - - - SW 19 28 10 15 1014.9 1014.9 0.0
14/09:30pm - - - - - S 13 30 7 16 1014.7 1014.7 0.0
14/09:00pm - - - - - SSW 15 19 8 10 1014.5 1014.4 0.0
14/08:30pm - - - - - SW 15 28 8 15 1014.2 1014.2 0.0
14/08:00pm - - - - - SW 13 20 7 11 1013.8 1013.8 0.0
14/07:30pm - - - - - SW 15 20 8 11 1013.3 1013.3 0.0
14/07:00pm - - - - - SW 15 20 8 11 1013.0 1013.0 0.0
14/06:30pm - - - - - SW 19 26 10 14 1012.8 1012.8 0.0
14/06:00pm - - - - - SSW 15 20 8 11 1012.9 1012.9 0.0
14/05:30pm - - - - - SSW 19 28 10 15 1012.8 1012.8 0.0
14/05:00pm - - - - - SSW 20 28 11 15 1012.6 1012.6 0.0
14/04:30pm - - - - - SSW 22 30 12 16 1012.5 1012.5 0.0
14/04:00pm - - - - - SSW 19 32 10 17 1012.5 1012.5 0.0
14/03:30pm - - - - - SSW 19 30 10 16 1012.5 1012.5 0.0
14/03:00pm - - - - - SSW 20 32 11 17 1012.5 1012.5 0.0
14/02:30pm - - - - - SSW 19 28 10 15 1012.4 1012.4 0.0
14/02:00pm - - - - - SSW 20 30 11 16 1012.3 1012.3 0.0
14/01:30pm - - - - - SSW 20 37 11 20 1012.1 1012.1 0.0
14/01:00pm - - - - - SW 19 30 10 16 1012.0 1012.0 0.0
14/12:30pm - - - - - SSW 17 32 9 17 1012.0 1012.0 0.0
14/12:00pm - - - - - SSW 15 28 8 15 1012.2 1012.2 0.0
14/11:30am - - - - - SSW 19 28 10 15 1012.3 1012.3 0.0
14/11:00am - - - - - SSW 15 33 8 18 1012.3 1012.3 0.0
14/10:30am - - - - - SW 17 26 9 14 1012.3 1012.3 0.0
14/10:00am - - - - - SW 19 26 10 14 1012.0 1012.0 0.0
14/09:30am - - - - - WSW 15 22 8 12 1011.8 1011.8 0.0
14/09:00am - - - - - WSW 11 19 6 10 1011.6 1011.6 0.0
14/08:30am - - - - - WSW 13 24 7 13 1011.3 1011.3 0.0
14/08:00am - - - - - WSW 15 24 8 13 1010.9 1010.8 0.0
14/07:30am - - - - - SW 17 24 9 13 1010.6 1010.5 0.0
14/07:00am - - - - - SW 20 28 11 15 1010.3 1010.2 0.0
14/06:30am - - - - - SW 17 26 9 14 1010.2 1010.1 0.0
14/06:00am - - - - - SSW 13 30 7 16 1009.7 1009.7 0.0
14/05:30am - - - - - SW 17 28 9 15 1009.4 1009.4 0.0
14/05:00am - - - - - SW 20 30 11 16 1009.2 1009.2 0.0
14/04:30am - - - - - SW 20 37 11 20 1008.8 1008.8 0.0
14/04:00am - - - - - SW 20 44 11 24 1008.6 1008.6 0.0
14/03:30am - - - - - SW 28 46 15 25 1008.2 1008.2 0.0
14/03:00am - - - - - SW 28 37 15 20 1008.1 1008.1 0.0
14/02:30am - - - - - SW 20 32 11 17 1008.0 1008.0 0.0
14/02:00am - - - - - WSW 11 19 6 10 1008.2 1008.2 0.0
14/01:30am - - - - - WSW 13 19 7 10 1008.1 1008.1 0.0
14/01:00am - - - - - WSW 15 20 8 11 1007.8 1007.8 0.0
14/12:30am - - - - - SW 17 20 9 11 1007.8 1007.8 0.0
14/12:00am - - - - - SW 17 22 9 12 1007.7 1007.7 0.0
 
Date/Time
EDT
Temp
°C
App
Temp
°C
Dew
Point
°C
Rel
Hum
%
Delta-T
°C
Wind Press
QNH
hPa
Press
MSL
hPa
Rain since
9am
mm
Dir  Spd
km/h
Gust
km/h
Spd
kts
Gust
kts
13/11:30pm - - - - - S 13 17 7 9 1007.4 1007.3 0.0
13/11:00pm - - - - - S 15 19 8 10 1007.1 1007.0 0.0

Latest Capital City Observations: Canberra | Sydney | Melbourne | Brisbane | Adelaide | Perth | Hobart | Darwin

Other Formats:

Comma delimited format used in spreadsheet applications
http://www.bom.gov.au/fwo/IDT60901/IDT60901.95986.axf

JavaScript Object Notation format (JSON) in row-major order
http://www.bom.gov.au/fwo/IDT60901/IDT60901.95986.json